Aviation weather information 2020-06-01 09:29 UTC

TAF(FCEO32)
FCEO32 EETN 010300 AAA
TAF AMD EEKA 010700Z 0104/0110 CNL=
FCEO32 EETN 010500 AAA
TAF AMD EEKE 010900Z 0106/0112 CNL=

TAF(FTEO31)
FTEO31 EETN 010500
TAF EETN 010510Z 0106/0206 03010KT 9999 BKN045 PROB40 TEMPO
     0108/0115 SCT025CB BKN035 TEMPO 0118/0124 09010KT=

TAF(FTEO33)
FTEO33 EEEI 010530
TAF EEEI 010530Z 0106/0206 06010KT CAVOK BECMG 0111/0113 BKN030=
     

Weather observation (METAR/SPECI)
METAR EETN 010920Z 04007KT 010V070 9999 OVC046 14/06 Q1024 NOSIG=
SPECI EEEI 010904Z 03011KT 9999 FEW047 16/05 Q1024=
METAR EETU 010920Z 01012KT CAVOK 14/02 Q1022=
METAR EEPU 010850Z NIL=
METAR EEKE 010850Z 02015KT CAVOK 19/05 Q1024=
METAR EEKA 010850Z NIL=